Time;durP1;ratioP1;P1;durP2;ratioP2;P2;SDS_P1;SDS_P2;PMS_P1;PMS_P2;Temp;Humidity;BMP_temperature;BMP_pressure;BME280_temperature;BME280_humidity;BME280_pressure;Samples;Min_cycle;Max_cycle;Signal;HPM_P1;HPM_P2
2023/12/03 00:00:28;;;;;;;30.00;11.85;;;21.60;58.10;;;;;;4990354;28;20058;-59
2023/12/03 00:02:54;;;;;;;41.65;13.25;;;21.50;57.80;;;;;;4980600;28;20489;-57
2023/12/03 00:05:21;;;;;;;34.58;10.23;;;21.40;57.90;;;;;;4977483;28;20180;-59
2023/12/03 00:07:48;;;;;;;22.00;9.30;;;21.40;57.20;;;;;;4989994;28;20122;-56
2023/12/03 00:10:14;;;;;;;20.70;8.98;;;21.40;57.20;;;;;;4986681;28;20052;-61
2023/12/03 00:12:41;;;;;;;32.20;8.80;;;21.30;57.80;;;;;;4986599;28;20445;-60
2023/12/03 00:15:08;;;;;;;28.20;7.90;;;21.20;57.20;;;;;;4980253;28;20042;-60
2023/12/03 00:17:34;;;;;;;29.65;8.73;;;21.20;57.80;;;;;;4970705;28;20043;-61
2023/12/03 00:20:01;;;;;;;32.78;9.73;;;21.20;57.70;;;;;;4971056;28;20027;-60
2023/12/03 00:22:27;;;;;;;26.27;8.52;;;21.10;58.30;;;;;;4971493;28;20037;-59
2023/12/03 00:24:54;;;;;;;29.90;8.75;;;21.00;59.70;;;;;;4970524;28;20034;-58
2023/12/03 00:27:20;;;;;;;21.73;8.45;;;20.90;60.00;;;;;;4968314;28;20044;-54
2023/12/03 00:29:47;;;;;;;26.83;9.48;;;20.80;60.50;;;;;;4973598;28;20068;-56
2023/12/03 00:32:13;;;;;;;29.50;9.07;;;20.70;60.70;;;;;;4989789;28;20113;-58
2023/12/03 00:34:40;;;;;;;34.65;10.07;;;20.50;60.90;;;;;;4989884;28;20032;-58
2023/12/03 00:37:06;;;;;;;28.60;10.10;;;20.30;61.00;;;;;;4987412;28;20035;-58
2023/12/03 00:39:33;;;;;;;40.70;10.38;;;20.30;61.60;;;;;;4989860;28;20036;-56
2023/12/03 00:41:59;;;;;;;31.15;9.63;;;20.10;62.00;;;;;;4989316;28;20038;-57
2023/12/03 00:44:26;;;;;;;27.67;10.65;;;20.00;62.20;;;;;;4989667;28;20071;-58
2023/12/03 00:46:52;;;;;;;29.55;9.55;;;19.90;63.70;;;;;;4988977;28;20033;-59
2023/12/03 00:49:19;;;;;;;39.30;11.02;;;19.80;62.80;;;;;;4988926;28;20072;-57
2023/12/03 00:51:46;;;;;;;39.10;11.02;;;19.70;63.00;;;;;;4972015;28;20085;-58
2023/12/03 00:54:12;;;;;;;45.15;10.77;;;19.60;63.50;;;;;;4970229;28;20524;-57
2023/12/03 00:56:39;;;;;;;33.95;11.43;;;19.50;63.70;;;;;;4970198;28;20050;-58
2023/12/03 00:59:05;;;;;;;33.90;11.02;;;19.40;64.00;;;;;;4972686;28;20131;-57
2023/12/03 01:01:32;;;;;;;36.85;11.50;;;19.30;64.40;;;;;;4975183;28;20036;-59
2023/12/03 01:03:58;;;;;;;39.05;13.32;;;19.30;64.30;;;;;;4974024;28;20619;-57
2023/12/03 01:06:25;;;;;;;36.83;14.18;;;19.10;64.30;;;;;;4992105;28;20056;-58
2023/12/03 01:08:51;;;;;;;47.92;14.05;;;19.00;64.80;;;;;;4981217;28;20064;-57
2023/12/03 01:11:18;;;;;;;41.28;14.05;;;18.90;65.60;;;;;;4979359;28;20033;-59
2023/12/03 01:13:44;;;;;;;40.70;13.38;;;18.80;65.70;;;;;;4992617;28;20034;-57
2023/12/03 01:16:15;;;;;;;41.60;12.30;;;18.80;67.60;;;;;;4992982;28;20036;-57
2023/12/03 01:18:42;;;;;;;48.45;11.15;;;18.70;68.10;;;;;;4992692;28;20081;-58
2023/12/03 01:21:08;;;;;;;36.88;11.07;;;18.60;68.70;;;;;;4993086;28;20046;-56
2023/12/03 01:23:35;;;;;;;35.70;10.57;;;18.50;69.30;;;;;;4979715;28;20249;-57
2023/12/03 01:26:02;;;;;;;44.30;11.13;;;18.50;70.40;;;;;;4992941;28;20128;-54
2023/12/03 01:28:28;;;;;;;29.40;10.32;;;18.40;70.50;;;;;;4972199;28;20032;-58
2023/12/03 01:30:54;;;;;;;41.50;12.23;;;18.40;71.10;;;;;;4981896;28;20073;-56
2023/12/03 01:33:21;;;;;;;45.00;13.13;;;18.20;71.20;;;;;;4992229;28;20030;-57
2023/12/03 01:35:47;;;;;;;70.68;31.10;;;18.20;71.80;;;;;;4984053;28;20062;-57
2023/12/03 01:38:14;;;;;;;45.53;16.45;;;18.10;72.20;;;;;;4988378;28;20104;-56
2023/12/03 01:40:52;;;;;;;62.33;19.58;;;18.00;72.80;;;;;;4983686;28;20043;-57
2023/12/03 01:43:18;;;;;;;50.72;17.95;;;18.00;73.30;;;;;;4973597;28;20042;-56
2023/12/03 01:45:45;;;;;;;57.72;18.75;;;17.90;73.90;;;;;;4988743;28;20058;-56
2023/12/03 01:48:13;;;;;;;58.35;18.73;;;17.80;74.80;;;;;;4983039;28;20080;-55
2023/12/03 01:50:40;;;;;;;54.90;17.67;;;17.70;75.20;;;;;;4977362;28;20075;-63
2023/12/03 01:53:07;;;;;;;54.05;19.05;;;17.70;75.90;;;;;;4985557;28;20841;-57
2023/12/03 01:55:35;;;;;;;54.67;16.65;;;17.60;76.00;;;;;;4979697;28;20032;-56
2023/12/03 01:58:01;;;;;;;54.40;16.10;;;17.50;77.10;;;;;;4982117;28;20040;-54
2023/12/03 02:00:28;;;;;;;42.92;16.80;;;17.50;77.60;;;;;;4983547;28;20544;-55
2023/12/03 02:02:54;;;;;;;54.47;15.55;;;17.40;77.90;;;;;;4983471;28;20413;-58
2023/12/03 02:05:21;;;;;;;71.13;17.30;;;17.40;78.30;;;;;;4980149;28;20043;-58
2023/12/03 02:07:47;;;;;;;65.32;17.10;;;17.30;78.40;;;;;;4970022;28;20035;-56
2023/12/03 02:10:14;;;;;;;67.07;17.90;;;17.20;79.50;;;;;;4971894;28;20089;-63
2023/12/03 02:12:40;;;;;;;74.13;18.23;;;17.20;79.40;;;;;;4973835;28;20474;-57
2023/12/03 02:15:08;;;;;;;46.47;17.10;;;17.10;80.30;;;;;;4975350;28;20493;-57
2023/12/03 02:17:36;;;;;;;72.15;18.35;;;17.00;80.40;;;;;;4973344;28;20071;-55
2023/12/03 02:20:03;;;;;;;50.10;17.75;;;17.00;80.60;;;;;;4973219;28;20051;-57
2023/12/03 02:22:30;;;;;;;57.78;17.67;;;16.90;80.70;;;;;;4977792;28;20046;-57
2023/12/03 02:24:56;;;;;;;64.88;17.73;;;16.90;82.00;;;;;;4976823;28;20050;-57
2023/12/03 02:27:23;;;;;;;62.03;18.00;;;16.90;82.00;;;;;;4978682;28;20043;-58
2023/12/03 02:29:49;;;;;;;64.45;18.48;;;16.70;82.00;;;;;;4980944;28;20077;-59
2023/12/03 02:32:15;;;;;;;52.03;17.75;;;16.70;83.20;;;;;;4973417;28;20043;-58
2023/12/03 02:34:42;;;;;;;64.35;17.30;;;16.70;83.80;;;;;;4975770;28;20140;-61
2023/12/03 02:37:08;;;;;;;71.10;19.25;;;16.70;84.10;;;;;;4973838;28;20048;-58
2023/12/03 02:39:35;;;;;;;70.57;20.25;;;16.60;83.80;;;;;;4978350;28;20043;-58
2023/12/03 02:42:01;;;;;;;69.85;21.92;;;16.50;84.10;;;;;;4980969;28;20408;-58
2023/12/03 02:44:28;;;;;;;81.45;25.27;;;16.50;84.30;;;;;;4981546;28;20047;-59
2023/12/03 02:46:54;;;;;;;78.30;26.75;;;16.50;84.20;;;;;;4972956;28;20055;-59
2023/12/03 02:49:21;;;;;;;88.78;26.42;;;16.40;84.20;;;;;;4978115;28;20089;-59
2023/12/03 02:51:47;;;;;;;81.75;24.73;;;16.40;84.50;;;;;;4974379;28;20041;-59
2023/12/03 02:54:14;;;;;;;84.03;26.40;;;16.40;84.60;;;;;;4977948;28;20476;-59
2023/12/03 02:56:42;;;;;;;92.18;26.27;;;16.30;84.80;;;;;;4981174;28;20087;-57
2023/12/03 02:59:09;;;;;;;119.93;28.52;;;16.20;85.50;;;;;;4972530;28;20302;-58
2023/12/03 03:01:35;;;;;;;115.93;27.48;;;16.30;86.40;;;;;;4973328;28;20041;-54
2023/12/03 03:04:02;;;;;;;103.03;29.33;;;16.20;87.00;;;;;;4975140;28;20125;-58
2023/12/03 03:06:28;;;;;;;94.22;29.17;;;16.10;87.70;;;;;;4969160;28;20046;-56
2023/12/03 03:08:54;;;;;;;117.97;29.95;;;16.10;88.50;;;;;;4964797;28;20060;-57
2023/12/03 03:11:21;;;;;;;107.82;31.02;;;16.10;88.50;;;;;;4966527;28;20064;-61
2023/12/03 03:13:47;;;;;;;100.55;30.52;;;16.10;88.90;;;;;;4969766;28;20030;-56
2023/12/03 03:16:14;;;;;;;111.63;29.33;;;16.00;89.40;;;;;;4969668;28;20116;-60
2023/12/03 03:18:40;;;;;;;117.95;30.55;;;16.00;90.00;;;;;;4967996;28;20423;-58
2023/12/03 03:21:07;;;;;;;119.03;29.55;;;15.90;90.20;;;;;;4976042;28;20044;-55
2023/12/03 03:23:37;;;;;;;109.28;29.23;;;15.90;90.40;;;;;;4974464;28;20036;-60
2023/12/03 03:26:03;;;;;;;105.57;27.52;;;15.90;90.50;;;;;;4973131;28;20059;-58
2023/12/03 03:28:30;;;;;;;94.20;27.50;;;15.90;90.80;;;;;;4976253;28;20050;-57
2023/12/03 03:30:58;;;;;;;93.15;26.10;;;15.80;90.80;;;;;;4970275;28;20069;-56
2023/12/03 03:33:25;;;;;;;113.53;27.88;;;15.80;90.50;;;;;;4972633;28;20402;-57
2023/12/03 03:35:51;;;;;;;82.47;27.35;;;15.70;90.60;;;;;;4967339;28;20496;-57
2023/12/03 03:38:18;;;;;;;99.07;28.35;;;15.70;90.80;;;;;;4976991;28;20157;-55
2023/12/03 03:40:44;;;;;;;86.32;28.38;;;15.70;90.90;;;;;;4970462;28;20084;-59
2023/12/03 03:43:10;;;;;;;100.22;29.95;;;15.70;91.10;;;;;;4968798;28;20129;-57
2023/12/03 03:45:37;;;;;;;84.80;30.55;;;15.60;91.40;;;;;;4974870;28;20057;-59
2023/12/03 03:48:05;;;;;;;108.72;32.70;;;15.60;91.40;;;;;;4972916;28;20070;-60
2023/12/03 03:50:31;;;;;;;107.38;33.20;;;15.50;91.30;;;;;;4964225;28;20083;-61
2023/12/03 03:52:58;;;;;;;94.43;32.30;;;15.50;91.40;;;;;;4969986;28;20448;-59
2023/12/03 03:55:24;;;;;;;96.80;32.28;;;15.50;91.50;;;;;;4967734;28;20044;-56
2023/12/03 03:57:52;;;;;;;122.63;36.03;;;15.40;91.50;;;;;;4971211;28;20070;-64
2023/12/03 04:00:19;;;;;;;117.63;36.08;;;15.40;91.60;;;;;;4972739;28;20041;-57
2023/12/03 04:02:46;;;;;;;113.03;36.45;;;15.40;91.80;;;;;;4971776;28;20043;-57
2023/12/03 04:05:13;;;;;;;105.65;36.58;;;15.40;91.80;;;;;;4973688;28;20175;-57
2023/12/03 04:07:39;;;;;;;100.05;36.88;;;15.40;91.70;;;;;;4966775;28;20092;-61
2023/12/03 04:10:06;;;;;;;118.75;34.10;;;15.40;91.80;;;;;;4966433;28;20069;-60
2023/12/03 04:12:33;;;;;;;101.25;35.63;;;15.30;91.90;;;;;;4974501;28;20098;-59
2023/12/03 04:14:59;;;;;;;104.72;39.17;;;15.30;92.10;;;;;;4969089;28;20059;-59
2023/12/03 04:17:25;;;;;;;107.88;38.55;;;15.30;92.10;;;;;;4973262;28;20046;-59
2023/12/03 04:19:52;;;;;;;105.80;40.67;;;15.20;92.20;;;;;;4972735;28;20047;-59
2023/12/03 04:22:18;;;;;;;132.27;44.78;;;15.30;92.40;;;;;;4972478;28;20049;-56
2023/12/03 04:24:48;;;;;;;107.53;46.42;;;15.20;92.30;;;;;;4978802;28;20049;-57
2023/12/03 04:27:14;;;;;;;128.27;51.40;;;15.20;92.40;;;;;;4979706;28;20126;-58
2023/12/03 04:29:40;;;;;;;123.53;53.78;;;15.20;92.30;;;;;;4968693;28;20078;-58
2023/12/03 04:32:07;;;;;;;125.97;51.20;;;15.20;92.30;;;;;;4968751;28;20441;-60
2023/12/03 04:34:34;;;;;;;124.28;47.67;;;15.20;92.30;;;;;;4979176;28;20044;-57
2023/12/03 04:37:00;;;;;;;113.97;46.28;;;15.20;92.30;;;;;;4980969;28;20050;-59
2023/12/03 04:39:28;;;;;;;111.43;46.88;;;15.20;92.50;;;;;;4984738;28;20047;-60
2023/12/03 04:41:55;;;;;;;130.45;48.78;;;15.20;92.30;;;;;;4983248;28;20159;-59
2023/12/03 04:44:21;;;;;;;109.13;44.42;;;15.20;92.70;;;;;;4977399;28;20051;-55
2023/12/03 04:46:48;;;;;;;116.03;47.88;;;15.20;92.60;;;;;;4974217;28;20053;-58
2023/12/03 04:49:15;;;;;;;118.38;50.72;;;15.10;92.80;;;;;;4975234;28;20112;-60
2023/12/03 04:51:41;;;;;;;106.32;49.05;;;15.10;93.00;;;;;;4974177;28;20054;-58
2023/12/03 04:54:08;;;;;;;125.25;53.05;;;15.10;93.30;;;;;;4972270;28;20078;-56
2023/12/03 04:56:34;;;;;;;120.57;58.70;;;15.00;93.10;;;;;;4966509;28;20042;-60
2023/12/03 04:59:01;;;;;;;129.68;58.47;;;15.00;93.40;;;;;;4976781;28;20143;-59
2023/12/03 05:01:27;;;;;;;132.25;62.30;;;15.00;93.60;;;;;;4976402;28;20049;-63
2023/12/03 05:03:54;;;;;;;117.20;56.85;;;14.90;93.70;;;;;;4984600;28;20042;-58
2023/12/03 05:06:20;;;;;;;110.15;49.97;;;14.90;93.90;;;;;;4984239;28;20143;-58
2023/12/03 05:08:47;;;;;;;115.47;49.63;;;14.80;93.60;;;;;;4986110;28;20570;-60
2023/12/03 05:11:13;;;;;;;104.88;44.88;;;14.80;93.60;;;;;;4978154;28;20421;-60
2023/12/03 05:13:40;;;;;;;107.53;45.22;;;14.70;93.80;;;;;;4977200;28;20045;-61
2023/12/03 05:16:06;;;;;;;104.07;44.60;;;14.70;94.10;;;;;;4981385;28;20588;-59
2023/12/03 05:18:33;;;;;;;112.47;42.55;;;14.70;94.10;;;;;;4973705;28;20554;-59
2023/12/03 05:20:59;;;;;;;96.55;40.42;;;14.70;94.10;;;;;;4977648;28;20516;-59
2023/12/03 05:23:26;;;;;;;97.95;39.88;;;14.60;94.20;;;;;;4979357;28;20049;-58
2023/12/03 05:25:53;;;;;;;93.53;37.83;;;14.60;94.30;;;;;;4980246;28;20053;-59
2023/12/03 05:28:19;;;;;;;95.60;37.78;;;14.60;94.40;;;;;;4978607;28;20066;-54
2023/12/03 05:30:46;;;;;;;100.40;38.72;;;14.60;94.60;;;;;;4975040;28;20075;-61
2023/12/03 05:33:13;;;;;;;86.18;36.85;;;14.60;94.70;;;;;;4973886;28;20046;-59
2023/12/03 05:35:39;;;;;;;112.07;39.67;;;14.50;94.70;;;;;;4978602;28;20049;-55
2023/12/03 05:38:06;;;;;;;103.43;38.63;;;14.50;94.90;;;;;;4973648;28;20512;-58
2023/12/03 05:40:32;;;;;;;100.70;38.67;;;14.50;95.10;;;;;;4972308;28;20052;-54
2023/12/03 05:42:59;;;;;;;;;;;14.40;95.30;;;;;;4977779;28;20089;-58
2023/12/03 05:45:25;;;;;;;98.18;38.13;;;14.40;95.40;;;;;;4978863;28;20406;-56
2023/12/03 05:47:52;;;;;;;86.82;37.03;;;14.40;95.50;;;;;;4975867;28;20113;-56
2023/12/03 05:50:19;;;;;;;91.25;37.30;;;14.30;95.70;;;;;;4979823;28;20167;-57
2023/12/03 05:52:46;;;;;;;119.47;38.08;;;14.30;95.60;;;;;;4983417;28;20047;-58
2023/12/03 05:55:12;;;;;;;125.50;40.65;;;14.30;95.70;;;;;;4981065;28;20118;-62
2023/12/03 05:57:39;;;;;;;125.97;41.65;;;14.30;96.00;;;;;;4984852;28;20135;-56
2023/12/03 06:00:06;;;;;;;116.75;41.70;;;14.30;96.20;;;;;;4976634;28;20063;-63
2023/12/03 06:02:35;;;;;;;125.75;44.50;;;14.20;96.40;;;;;;4979285;28;20480;-58
2023/12/03 06:05:02;;;;;;;124.20;44.63;;;14.20;96.40;;;;;;4980598;28;20575;-58
2023/12/03 06:07:29;;;;;;;116.53;47.38;;;14.10;96.50;;;;;;4977146;28;20489;-55
2023/12/03 06:09:55;;;;;;;127.82;52.55;;;14.10;96.70;;;;;;4979483;28;20629;-59
2023/12/03 06:12:22;;;;;;;115.80;52.78;;;14.10;96.70;;;;;;4979360;28;20587;-57
2023/12/03 06:14:48;;;;;;;126.90;53.50;;;14.10;96.90;;;;;;4980814;28;20142;-58
2023/12/03 06:17:15;;;;;;;124.35;52.38;;;14.10;96.90;;;;;;4973493;28;20133;-59
2023/12/03 06:19:41;;;;;;;138.05;53.65;;;14.00;97.00;;;;;;4984461;28;20082;-56
2023/12/03 06:22:08;;;;;;;124.93;51.85;;;14.00;97.20;;;;;;4979822;28;20680;-56
2023/12/03 06:24:34;;;;;;;128.93;53.25;;;13.90;97.50;;;;;;4980158;28;20476;-58
2023/12/03 06:27:00;;;;;;;131.32;52.03;;;13.90;97.50;;;;;;4981285;28;20469;-57
2023/12/03 06:29:27;;;;;;;116.18;53.33;;;13.90;97.60;;;;;;4974783;28;20088;-57
2023/12/03 06:31:53;;;;;;;120.05;53.38;;;13.90;97.70;;;;;;4977700;28;20569;-57
2023/12/03 06:34:20;;;;;;;134.82;55.10;;;13.90;97.80;;;;;;4978493;28;20045;-57
2023/12/03 06:36:46;;;;;;;126.13;53.75;;;13.80;97.70;;;;;;4978065;28;20078;-57
2023/12/03 06:39:12;;;;;;;;;;;13.80;97.90;;;;;;4979924;28;20059;-59
2023/12/03 06:41:39;;;;;;;104.18;51.47;;;13.80;98.10;;;;;;4979549;28;19998;-55
2023/12/03 06:44:06;;;;;;;118.35;52.85;;;13.80;98.10;;;;;;4976837;28;20058;-57
2023/12/03 06:46:39;;;;;;;110.30;49.15;;;13.70;98.10;;;;;;4972129;28;20051;-58
2023/12/03 06:49:06;;;;;;;122.05;55.05;;;13.70;98.20;;;;;;4978995;28;20103;-56
2023/12/03 06:51:33;;;;;;;102.70;46.55;;;13.70;98.50;;;;;;4983734;28;20053;-58
2023/12/03 06:54:02;;;;;;;117.65;47.60;;;13.70;98.60;;;;;;4983174;28;20069;-53
2023/12/03 06:56:28;;;;;;;105.25;44.60;;;13.70;98.60;;;;;;4978762;28;20049;-58
2023/12/03 06:58:55;;;;;;;124.03;48.55;;;13.70;98.60;;;;;;4975935;28;20065;-56
2023/12/03 07:01:22;;;;;;;116.47;48.15;;;13.70;98.60;;;;;;4982132;28;20508;-60
2023/12/03 07:03:48;;;;;;;120.07;49.67;;;13.60;98.90;;;;;;4975726;28;20049;-58
2023/12/03 07:06:15;;;;;;;147.68;63.72;;;13.60;98.90;;;;;;4981140;28;20060;-60
2023/12/03 07:08:41;;;;;;;130.75;56.90;;;13.60;98.80;;;;;;4974959;28;20060;-59
2023/12/03 07:11:08;;;;;;;107.38;44.13;;;13.60;98.80;;;;;;4970442;28;20128;-58
2023/12/03 07:13:35;;;;;;;75.00;34.40;;;13.60;98.60;;;;;;4972088;28;20162;-60
2023/12/03 07:16:01;;;;;;;78.03;32.85;;;13.60;98.50;;;;;;4972178;28;20639;-61
2023/12/03 07:18:28;;;;;;;83.60;33.92;;;13.60;98.50;;;;;;4970643;28;20073;-55
2023/12/03 07:20:54;;;;;;;79.00;30.77;;;13.60;98.80;;;;;;4971898;28;20149;-60
2023/12/03 07:23:21;;;;;;;70.93;31.75;;;13.60;98.60;;;;;;4971766;28;20084;-56
2023/12/03 07:25:47;;;;;;;61.95;27.80;;;13.60;98.70;;;;;;4971934;28;20623;-60
2023/12/03 07:28:13;;;;;;;;;;;13.60;98.70;;;;;;4970691;28;20057;-60
2023/12/03 07:30:40;;;;;;;48.72;20.98;;;13.50;98.60;;;;;;4971954;28;19973;-60
2023/12/03 07:33:06;;;;;;;49.05;19.45;;;13.50;98.80;;;;;;4971327;28;20529;-56
2023/12/03 07:35:33;;;;;;;51.90;18.70;;;13.70;99.10;;;;;;4971661;28;20521;-54
2023/12/03 07:37:59;;;;;;;48.88;19.20;;;14.00;98.30;;;;;;4971241;28;20060;-60
2023/12/03 07:40:26;;;;;;;42.60;17.23;;;14.20;97.90;;;;;;4970273;28;20137;-60
2023/12/03 07:42:52;;;;;;;38.03;17.60;;;14.30;97.40;;;;;;4970536;28;20053;-60
2023/12/03 07:45:19;;;;;;;46.15;16.77;;;14.40;97.30;;;;;;4970939;28;20054;-60
2023/12/03 07:47:45;;;;;;;34.28;16.33;;;14.50;97.10;;;;;;4970953;28;20897;-60
2023/12/03 07:50:12;;;;;;;34.63;15.88;;;14.40;97.10;;;;;;4969007;28;20104;-60
2023/12/03 07:52:39;;;;;;;37.65;15.20;;;14.30;97.50;;;;;;4970795;28;20106;-60
2023/12/03 07:55:06;;;;;;;32.00;15.52;;;14.30;97.30;;;;;;4971743;28;20069;-60
2023/12/03 07:57:33;;;;;;;34.15;15.77;;;14.30;97.40;;;;;;4970225;28;20131;-60
2023/12/03 07:59:59;;;;;;;33.65;15.52;;;14.40;97.70;;;;;;4971396;28;20533;-61
2023/12/03 08:02:26;;;;;;;37.15;14.00;;;14.40;97.40;;;;;;4971434;28;20055;-58
2023/12/03 08:04:52;;;;;;;34.70;14.13;;;14.50;97.10;;;;;;4970345;28;20055;-60
2023/12/03 08:07:18;;;;;;;30.85;13.60;;;14.50;97.20;;;;;;4972348;28;20063;-60
2023/12/03 08:09:45;;;;;;;32.58;13.50;;;14.40;97.30;;;;;;4970316;28;20091;-62
2023/12/03 08:12:11;;;;;;;33.40;13.23;;;14.30;97.30;;;;;;4969915;28;20048;-60
2023/12/03 08:14:38;;;;;;;31.13;13.23;;;14.20;97.60;;;;;;4971111;28;20147;-60
2023/12/03 08:17:06;;;;;;;29.50;12.30;;;14.20;97.80;;;;;;4970585;28;20099;-60
2023/12/03 08:19:32;;;;;;;35.53;12.23;;;14.20;97.60;;;;;;4969985;28;20066;-61
2023/12/03 08:21:59;;;;;;;30.42;13.57;;;14.20;97.80;;;;;;4969423;28;20162;-59
2023/12/03 08:24:25;;;;;;;53.53;13.02;;;14.10;97.90;;;;;;4970568;28;20468;-61
2023/12/03 08:26:52;;;;;;;29.02;11.88;;;14.00;98.00;;;;;;4970159;28;20145;-60
2023/12/03 08:29:18;;;;;;;31.05;11.93;;;14.00;98.00;;;;;;4969120;28;20071;-60
2023/12/03 08:31:45;;;;;;;38.58;12.52;;;14.00;98.20;;;;;;4971669;28;20052;-58
2023/12/03 08:34:12;;;;;;;28.48;12.65;;;13.90;98.20;;;;;;4971362;28;20056;-59
2023/12/03 08:36:38;;;;;;;27.33;12.32;;;14.00;98.70;;;;;;4971280;28;20107;-61
2023/12/03 08:39:07;;;;;;;27.08;12.38;;;13.90;98.40;;;;;;4971050;28;20919;-60
2023/12/03 08:41:37;;;;;;;31.88;12.90;;;13.90;98.40;;;;;;4970195;28;20089;-60
2023/12/03 08:44:04;;;;;;;33.28;13.73;;;13.90;98.70;;;;;;4969339;28;20058;-61
2023/12/03 08:46:30;;;;;;;30.30;13.02;;;13.80;99.00;;;;;;4971124;28;20048;-59
2023/12/03 08:48:57;;;;;;;30.13;13.57;;;13.80;99.00;;;;;;4968779;28;20094;-60
2023/12/03 08:51:23;;;;;;;35.25;13.35;;;13.80;98.70;;;;;;4970482;28;20141;-59
2023/12/03 08:53:50;;;;;;;52.40;30.55;;;13.70;98.70;;;;;;4969848;28;20522;-59
2023/12/03 08:56:17;;;;;;;51.60;30.30;;;13.80;98.80;;;;;;4970064;28;20147;-60
2023/12/03 08:58:44;;;;;;;31.40;14.68;;;13.70;98.90;;;;;;4970114;28;20103;-60
2023/12/03 09:01:10;;;;;;;30.00;14.77;;;13.60;99.10;;;;;;4970040;28;20124;-59
2023/12/03 09:03:40;;;;;;;35.67;14.65;;;13.60;99.20;;;;;;4969425;28;20515;-60
2023/12/03 09:06:07;;;;;;;37.13;14.30;;;13.50;99.40;;;;;;4969498;28;20205;-60
2023/12/03 09:08:33;;;;;;;33.95;14.95;;;13.40;99.80;;;;;;4972551;28;20053;-65
2023/12/03 09:11:00;;;;;;;32.00;15.00;;;13.50;99.90;;;;;;4968872;28;20131;-60
2023/12/03 09:13:27;;;;;;;32.33;14.13;;;13.40;99.90;;;;;;4970972;28;20057;-61
2023/12/03 09:15:56;;;;;;;36.47;15.05;;;13.30;99.90;;;;;;4971397;28;20561;-58
2023/12/03 09:18:23;;;;;;;26.65;13.63;;;13.20;99.90;;;;;;4967183;28;20067;-58
2023/12/03 09:20:50;;;;;;;42.00;15.63;;;13.20;99.90;;;;;;4972001;28;20055;-59
2023/12/03 09:23:18;;;;;;;40.38;15.07;;;13.20;99.90;;;;;;4973049;28;20059;-61
2023/12/03 09:25:45;;;;;;;38.67;15.80;;;13.10;99.90;;;;;;4975005;28;20139;-60
2023/12/03 09:28:12;;;;;;;34.28;15.27;;;13.00;99.90;;;;;;4971875;28;20119;-59
2023/12/03 09:30:38;;;;;;;30.02;16.70;;;13.10;99.90;;;;;;4974920;28;20159;-60
2023/12/03 09:33:05;;;;;;;36.25;17.23;;;13.00;99.90;;;;;;4971287;28;20107;-60
2023/12/03 09:35:32;;;;;;;39.55;19.88;;;13.00;99.90;;;;;;4973129;28;20069;-60
2023/12/03 09:37:59;;;;;;;45.53;19.90;;;12.90;99.90;;;;;;4972417;28;20065;-60
2023/12/03 09:40:26;;;;;;;41.85;17.90;;;12.90;99.90;;;;;;4973134;28;20149;-58
2023/12/03 09:42:56;;;;;;;29.95;17.67;;;12.90;99.90;;;;;;4972137;28;20062;-59
2023/12/03 09:45:28;;;;;;;33.47;17.35;;;12.90;99.90;;;;;;4974419;28;20055;-58
2023/12/03 09:48:01;;;;;;;43.30;17.88;;;12.80;99.90;;;;;;4971985;28;20059;-59
2023/12/03 09:50:34;;;;;;;52.60;18.27;;;12.80;99.90;;;;;;4973453;28;20113;-58
2023/12/03 09:53:06;;;;;;;37.95;17.25;;;12.80;99.90;;;;;;4973118;28;20443;-61
2023/12/03 09:55:34;;;;;;;47.90;19.85;;;12.70;99.90;;;;;;4971697;28;20099;-60
2023/12/03 09:58:01;;;;;;;52.17;19.58;;;12.70;99.90;;;;;;4974056;28;20480;-60
2023/12/03 10:00:29;;;;;;;42.45;18.42;;;12.60;99.90;;;;;;4971514;28;20508;-60
2023/12/03 10:02:56;;;;;;;46.55;19.05;;;12.60;99.90;;;;;;4972279;28;20070;-60
2023/12/03 10:05:23;;;;;;;49.15;18.27;;;12.50;99.90;;;;;;4974054;28;20390;-58
2023/12/03 10:07:50;;;;;;;43.75;18.13;;;12.50;99.90;;;;;;4975637;28;20073;-60
2023/12/03 10:10:24;;;;;;;33.88;17.23;;;12.50;99.90;;;;;;4970824;28;20449;-59
2023/12/03 10:12:54;;;;;;;40.55;18.00;;;12.50;99.90;;;;;;4971643;28;20073;-59
2023/12/03 10:15:21;;;;;;;42.25;17.92;;;12.40;99.90;;;;;;4972325;28;20601;-60
2023/12/03 10:17:50;;;;;;;53.72;19.60;;;12.40;99.90;;;;;;4972404;28;20077;-60
2023/12/03 10:20:24;;;;;;;54.08;19.23;;;12.40;99.90;;;;;;4973244;28;20218;-60
2023/12/03 10:22:51;;;;;;;47.70;20.13;;;12.40;99.90;;;;;;4973538;28;20067;-58
2023/12/03 10:25:35;;;;;;;46.45;21.38;;;12.40;99.90;;;;;;4971552;28;20074;-60
2023/12/03 10:28:07;;;;;;;56.17;21.27;;;12.40;99.90;;;;;;4972506;28;20057;-59
2023/12/03 10:30:35;;;;;;;55.90;23.35;;;12.40;99.90;;;;;;4972735;28;20084;-59
2023/12/03 10:33:04;;;;;;;53.80;21.67;;;12.40;99.90;;;;;;4972497;28;20057;-59
2023/12/03 10:35:35;;;;;;;49.28;20.77;;;12.30;99.90;;;;;;4970992;28;20128;-60
2023/12/03 10:38:06;;;;;;;55.33;21.55;;;12.30;99.90;;;;;;4972327;28;20514;-60
2023/12/03 10:40:33;;;;;;;44.17;21.40;;;12.30;99.90;;;;;;4972577;28;20073;-60
2023/12/03 10:43:01;;;;;;;49.38;23.15;;;12.30;99.90;;;;;;4972119;28;20172;-60
2023/12/03 10:45:29;;;;;;;55.78;23.23;;;12.20;99.90;;;;;;4972209;28;20073;-61
2023/12/03 10:48:02;;;;;;;58.70;22.17;;;12.20;99.90;;;;;;4972027;28;20061;-57
2023/12/03 10:50:30;;;;;;;64.45;24.88;;;12.20;99.90;;;;;;4977305;28;20104;-60
2023/12/03 10:53:00;;;;;;;74.22;31.85;;;12.20;99.90;;;;;;4973797;28;20432;-60
2023/12/03 10:55:27;;;;;;;72.57;31.23;;;12.10;99.90;;;;;;4971253;28;20081;-60
2023/12/03 10:58:02;;;;;;;76.80;32.83;;;12.10;99.90;;;;;;4971028;28;20172;-61
2023/12/03 11:00:44;;;;;;;68.88;33.88;;;12.00;99.90;;;;;;4970987;28;20065;-62
2023/12/03 11:03:18;;;;;;;61.78;31.83;;;12.00;99.90;;;;;;4973709;28;20074;-62
2023/12/03 11:05:52;;;;;;;69.30;37.72;;;12.00;99.90;;;;;;4971664;28;20057;-60
2023/12/03 11:08:21;;;;;;;80.28;42.60;;;12.00;99.90;;;;;;4972090;28;20075;-55
2023/12/03 11:10:49;;;;;;;86.60;45.60;;;11.90;99.90;;;;;;4972192;28;20090;-60
2023/12/03 11:13:18;;;;;;;77.22;38.55;;;11.80;99.90;;;;;;4970629;28;20119;-60
2023/12/03 11:15:46;;;;;;;67.82;32.13;;;11.80;99.90;;;;;;4971936;28;20059;-59
2023/12/03 11:18:18;;;;;;;52.45;28.48;;;11.70;99.90;;;;;;4971359;28;20135;-61
2023/12/03 11:20:47;;;;;;;63.95;28.08;;;11.60;99.90;;;;;;4971159;28;20056;-63
2023/12/03 11:23:50;;;;;;;60.50;27.90;;;11.60;99.90;;;;;;4971491;28;20168;-59
2023/12/03 11:26:18;;;;;;;60.13;28.63;;;11.60;99.90;;;;;;4971869;28;20087;-59
2023/12/03 11:28:57;;;;;;;58.42;27.65;;;11.60;99.90;;;;;;4971530;28;20084;-60
2023/12/03 11:31:25;;;;;;;58.40;27.88;;;11.60;99.90;;;;;;4971113;28;20072;-60
2023/12/03 11:34:03;;;;;;;68.10;28.65;;;11.60;99.90;;;;;;4970636;28;20055;-59
2023/12/03 11:36:47;;;;;;;65.63;27.45;;;11.60;99.90;;;;;;4969674;28;20173;-61
2023/12/03 11:39:14;;;;;;;63.85;30.23;;;11.60;99.90;;;;;;4970964;28;20052;-58
2023/12/03 11:41:43;;;;;;;55.95;29.70;;;11.40;99.90;;;;;;4971421;28;20066;-60
2023/12/03 11:44:19;;;;;;;74.07;32.53;;;11.50;99.90;;;;;;4969440;28;20060;-60
2023/12/03 11:47:03;;;;;;;60.92;33.50;;;11.60;99.90;;;;;;4971913;28;20065;-59
2023/12/03 11:49:32;;;;;;;60.92;33.22;;;11.50;99.90;;;;;;4971224;28;20103;-57
2023/12/03 11:52:00;;;;;;;66.07;34.83;;;11.40;99.90;;;;;;4975883;28;20106;-60
2023/12/03 11:54:38;;;;;;;68.32;34.17;;;11.40;99.90;;;;;;4971810;28;20153;-58
2023/12/03 11:57:13;;;;;;;66.45;34.90;;;11.50;99.90;;;;;;4972325;28;20571;-60
2023/12/03 11:59:43;;;;;;;64.03;33.67;;;11.50;99.90;;;;;;4970628;28;20159;-60
2023/12/03 12:02:11;;;;;;;66.10;34.00;;;11.50;99.90;;;;;;4970198;28;20528;-60
2023/12/03 12:04:37;;;;;;;70.53;36.55;;;11.50;99.90;;;;;;4969572;28;20073;-59
2023/12/03 12:07:17;;;;;;;69.57;35.65;;;11.50;99.90;;;;;;4971082;28;20521;-60
2023/12/03 12:09:48;;;;;;;65.40;36.20;;;11.40;99.90;;;;;;4968664;28;20560;-59
2023/12/03 12:12:15;;;;;;;72.78;35.92;;;11.40;99.90;;;;;;4970192;28;20052;-60
2023/12/03 12:14:42;;;;;;;74.72;38.35;;;11.30;99.90;;;;;;4970506;28;20422;-60
2023/12/03 12:17:09;;;;;;;76.72;35.88;;;11.30;99.90;;;;;;4970049;28;20056;-61
2023/12/03 12:19:36;;;;;;;71.47;36.60;;;11.30;99.90;;;;;;4970322;28;20077;-60
2023/12/03 12:22:02;;;;;;;82.45;40.70;;;11.20;99.90;;;;;;4972704;28;20078;-59
2023/12/03 12:24:29;;;;;;;91.85;39.53;;;11.20;99.90;;;;;;4970711;28;20065;-60
2023/12/03 12:26:56;;;;;;;83.90;39.75;;;11.20;99.90;;;;;;4969802;28;20125;-60